Pauls Valley, OK (73075)

3:48 PM CST on February 07, 2016 (GMT -0600)
Pauls Valley Municipal | | Change Station
CLOSE
Current Station
Airport
Location: Pauls Valley,
Elevation: 968 ft
Nearby Weather Stations

Elev 968 ft 34.71 °N, 97.22 °W | Updated 13 minutes ago

Clear
Clear
60 °F
Feels Like 60 °F
N
12
Wind Variable Wind from NNE

Today
High -- | Low -- °F
--% Chance of Precip.
Yesterday
High -- | Low -- °F
Precip. -- in
Pressure 30.11 in
Visibility 10.0 miles
Clouds Clear
Dew Point 29 °F
Humidity 31%
Rainfall 0.00 in
Snow Depth Not available.
7:22 AM 6:03 PM
Waning Crescent, 1% visible
METAR KPVJ 072135Z AUTO 03010KT 10SM CLR 16/M02 A3011 RMK AO2 T01561016
Pressure 30.11 in
Visibility 10.0 miles
Clouds Clear
Dew Point 29 °F
Humidity 31%
Rainfall 0.00 in
Snow Depth Not available.
7:22 AM 6:03 PM
Waning Crescent, 1% visible
METAR KPVJ 072135Z AUTO 03010KT 10SM CLR 16/M02 A3011 RMK AO2 T01561016

10-Day Weather Forecast

Almanac

Astronomy

Feb. 07, 2016 Rise Set
Actual Time
Civil Twilight
Nautical Twilight
Astronomical Twilight
Moon
Length of Visible Light
Length of Day
Tomorrow will be .
, % of the Moon is Illuminated

Today's Extremes

State Highs State Lows

Community

WunderPhotos

Upload Photos

1,891,304 photos uploaded!

WunderBlog® & News

Nearby

Air Quality

  Air Quality AQ Index Pollutant
Not available.

Snow Depth

Station Depth Elevation

Earthquake Activity

City Distance Mag. Time & Date
Minimum magnitude displayed is 2.5.

Coastal Water Temperatures

Place Temperature

Stations

Nearby Weather Stations

Station Location Temp. Windchill Dew Point Humidity Wind Precip. Elev Updated Type
                   

Watches & Warnings

There are currently no watches in effect.